Time;durP1;ratioP1;P1;durP2;ratioP2;P2;SDS_P1;SDS_P2;PMS_P1;PMS_P2;Temp;Humidity;BMP_temperature;BMP_pressure;BME280_temperature;BME280_humidity;BME280_pressure;Samples;Min_cycle;Max_cycle;Signal;HPM_P1;HPM_P2
2024/01/24 00:00:17;;;;;;;5.78;1.90;;;7.10;99.90;;;;;;2104753;28;20502;-71
2024/01/24 00:01:17;;;;;;;5.60;1.77;;;7.10;99.90;;;;;;2105421;28;20581;-72
2024/01/24 00:02:18;;;;;;;5.68;2.00;;;7.10;99.90;;;;;;2104091;28;20052;-72
2024/01/24 00:03:19;;;;;;;5.18;1.83;;;7.20;99.90;;;;;;2104516;28;20722;-73
2024/01/24 00:04:20;;;;;;;3.45;1.42;;;7.20;99.90;;;;;;2102877;28;20024;-72
2024/01/24 00:05:20;;;;;;;5.28;1.65;;;7.20;99.90;;;;;;2105406;28;20059;-72
2024/01/24 00:06:21;;;;;;;3.28;1.55;;;7.20;99.90;;;;;;2102596;28;20017;-72
2024/01/24 00:07:21;;;;;;;3.92;1.50;;;7.20;99.90;;;;;;2103186;28;20032;-72
2024/01/24 00:08:22;;;;;;;3.40;1.55;;;7.20;99.90;;;;;;2103587;28;20166;-72
2024/01/24 00:09:22;;;;;;;3.17;1.40;;;7.20;99.90;;;;;;2104778;28;20033;-72
2024/01/24 00:10:23;;;;;;;3.13;1.20;;;7.20;99.90;;;;;;2107140;28;20031;-72
2024/01/24 00:11:23;;;;;;;3.20;1.30;;;7.30;99.90;;;;;;2105854;28;20035;-72
2024/01/24 00:12:24;;;;;;;3.50;1.30;;;7.20;99.90;;;;;;2104470;28;20132;-71
2024/01/24 00:13:25;;;;;;;4.18;1.30;;;7.20;99.90;;;;;;2104122;28;20032;-72
2024/01/24 00:14:26;;;;;;;3.08;1.40;;;7.20;99.90;;;;;;2094643;28;20036;-72
2024/01/24 00:15:26;;;;;;;4.47;1.45;;;7.20;99.90;;;;;;2103249;28;20090;-72
2024/01/24 00:16:27;;;;;;;2.78;1.30;;;7.20;99.90;;;;;;2100715;28;20032;-72
2024/01/24 00:17:28;;;;;;;3.97;1.65;;;7.10;99.90;;;;;;2103585;28;20032;-72
2024/01/24 00:18:28;;;;;;;5.15;2.03;;;7.10;99.90;;;;;;2092720;28;20153;-72
2024/01/24 00:19:29;;;;;;;3.20;1.40;;;7.10;99.90;;;;;;2097416;28;20028;-72
2024/01/24 00:20:30;;;;;;;3.65;1.65;;;7.10;99.90;;;;;;2105206;28;20122;-72
2024/01/24 00:21:30;;;;;;;3.97;1.55;;;7.10;99.90;;;;;;2092704;28;20044;-73
2024/01/24 00:22:31;;;;;;;4.38;1.55;;;7.10;99.90;;;;;;2096972;28;20058;-72
2024/01/24 00:23:31;;;;;;;6.18;2.33;;;7.20;99.90;;;;;;2099774;28;20032;-73
2024/01/24 00:24:32;;;;;;;7.82;2.83;;;7.20;99.90;;;;;;2097079;28;20496;-72
2024/01/24 00:25:32;;;;;;;20.38;8.02;;;7.20;99.90;;;;;;2092992;28;20068;-73
2024/01/24 00:26:33;;;;;;;11.88;4.80;;;7.20;99.90;;;;;;2099960;28;20020;-72
2024/01/24 00:27:33;;;;;;;7.00;3.63;;;7.10;99.90;;;;;;2099866;28;20080;-72
2024/01/24 00:28:34;;;;;;;8.52;3.50;;;7.10;99.90;;;;;;2092822;28;20106;-71
2024/01/24 00:29:34;;;;;;;9.25;4.32;;;7.10;99.90;;;;;;2092156;28;20016;-71
2024/01/24 00:30:35;;;;;;;9.15;3.80;;;7.10;99.90;;;;;;2099936;28;20028;-72
2024/01/24 00:31:36;;;;;;;9.50;3.95;;;7.00;99.90;;;;;;2094991;28;20016;-71
2024/01/24 00:32:36;;;;;;;8.10;3.65;;;7.00;99.90;;;;;;2099011;28;20048;-72
2024/01/24 00:33:37;;;;;;;7.22;3.20;;;6.90;99.90;;;;;;2101491;28;20106;-72
2024/01/24 00:34:37;;;;;;;7.57;2.60;;;6.90;99.90;;;;;;2100863;28;20060;-72
2024/01/24 00:35:38;;;;;;;4.07;1.98;;;6.90;99.90;;;;;;2093137;28;20077;-72
2024/01/24 00:36:38;;;;;;;5.78;2.90;;;6.90;99.90;;;;;;2100269;28;20051;-72
2024/01/24 00:37:39;;;;;;;4.43;2.28;;;6.90;99.90;;;;;;2101102;28;20027;-72
2024/01/24 00:38:39;;;;;;;4.55;1.73;;;6.90;99.90;;;;;;2094406;28;20028;-72
2024/01/24 00:39:40;;;;;;;4.10;1.83;;;6.90;99.90;;;;;;2093358;28;20025;-72
2024/01/24 00:40:41;;;;;;;3.25;1.90;;;6.90;99.90;;;;;;2100886;28;20100;-71
2024/01/24 00:41:42;;;;;;;3.33;2.00;;;6.90;99.90;;;;;;2095815;28;20035;-72
2024/01/24 00:42:42;;;;;;;3.83;1.65;;;6.80;99.90;;;;;;2098551;28;20395;-71
2024/01/24 00:43:43;;;;;;;3.10;1.42;;;6.80;99.90;;;;;;2100078;28;20027;-73
2024/01/24 00:44:45;;;;;;;2.75;1.30;;;6.80;99.90;;;;;;2094384;28;20039;-71
2024/01/24 00:45:45;;;;;;;2.08;1.10;;;6.80;99.90;;;;;;2098108;28;20048;-72
2024/01/24 00:46:46;;;;;;;1.83;1.23;;;6.80;99.90;;;;;;2100674;28;20032;-71
2024/01/24 00:47:46;;;;;;;2.47;1.40;;;6.80;99.90;;;;;;2095515;28;20044;-72
2024/01/24 00:48:47;;;;;;;3.25;1.20;;;6.80;99.90;;;;;;2097558;28;20039;-72
2024/01/24 00:49:47;;;;;;;2.33;1.10;;;6.90;99.90;;;;;;2100806;28;20513;-72
2024/01/24 00:50:48;;;;;;;1.85;0.90;;;7.00;99.90;;;;;;2096202;28;20032;-72
2024/01/24 00:51:48;;;;;;;1.48;1.08;;;7.00;99.90;;;;;;2099987;28;20098;-73
2024/01/24 00:52:52;;;;;;;1.92;1.10;;;6.90;99.90;;;;;;2098339;28;20031;-71
2024/01/24 00:53:52;;;;;;;2.50;1.30;;;6.90;99.90;;;;;;2092524;28;20497;-73
2024/01/24 00:54:53;;;;;;;2.15;1.38;;;6.90;99.90;;;;;;2100675;28;20110;-72
2024/01/24 00:55:55;;;;;;;2.95;1.55;;;6.90;99.90;;;;;;2095637;28;20021;-72
2024/01/24 00:56:56;;;;;;;2.97;1.48;;;6.90;99.90;;;;;;2096651;28;20021;-73
2024/01/24 00:57:58;;;;;;;2.50;1.38;;;6.80;99.90;;;;;;2100574;28;20031;-73
2024/01/24 00:58:58;;;;;;;2.40;1.30;;;6.70;99.90;;;;;;2097314;28;20031;-73
2024/01/24 00:59:59;;;;;;;2.42;1.20;;;6.70;99.90;;;;;;2096500;28;20031;-73
2024/01/24 01:00:59;;;;;;;2.47;1.20;;;6.70;99.90;;;;;;2103619;28;20502;-73
2024/01/24 01:02:00;;;;;;;2.22;1.30;;;6.70;99.90;;;;;;2098279;28;20471;-72
2024/01/24 01:03:00;;;;;;;3.08;1.15;;;6.60;99.90;;;;;;2096119;28;20252;-73
2024/01/24 01:04:01;;;;;;;2.72;1.45;;;6.60;99.90;;;;;;2100231;28;20057;-71
2024/01/24 01:05:04;;;;;;;1.83;1.38;;;6.50;99.90;;;;;;2098310;28;20448;-72
2024/01/24 01:06:05;;;;;;;3.13;1.40;;;6.50;99.90;;;;;;2094221;28;20043;-72
2024/01/24 01:07:05;;;;;;;3.13;1.30;;;6.50;99.90;;;;;;2092879;28;20717;-72
2024/01/24 01:08:06;;;;;;;2.08;1.25;;;6.50;99.90;;;;;;2104538;28;20039;-71
2024/01/24 01:09:07;;;;;;;4.13;2.03;;;6.40;99.90;;;;;;2101044;28;20323;-72
2024/01/24 01:10:09;;;;;;;3.85;2.20;;;6.50;99.90;;;;;;2104392;28;20020;-71
2024/01/24 01:11:09;;;;;;;4.22;2.28;;;6.50;99.90;;;;;;2093879;28;20029;-72
2024/01/24 01:12:10;;;;;;;3.15;1.73;;;6.50;99.90;;;;;;2102209;28;20028;-71
2024/01/24 01:13:10;;;;;;;3.47;1.50;;;6.50;99.90;;;;;;2106511;28;20023;-73
2024/01/24 01:14:11;;;;;;;2.53;1.52;;;6.50;99.90;;;;;;2094953;28;20506;-73
2024/01/24 01:15:12;;;;;;;3.08;1.60;;;6.50;99.90;;;;;;2101819;28;20097;-74
2024/01/24 01:16:12;;;;;;;3.40;1.20;;;6.50;99.90;;;;;;2101321;28;20028;-73
2024/01/24 01:17:13;;;;;;;3.90;1.88;;;6.50;99.90;;;;;;2094519;28;20086;-74
2024/01/24 01:18:13;;;;;;;2.28;1.20;;;6.50;99.90;;;;;;2101520;28;20037;-73
2024/01/24 01:19:14;;;;;;;2.17;1.20;;;6.60;99.90;;;;;;2101572;28;20128;-73
2024/01/24 01:20:18;;;;;;;2.97;1.20;;;6.60;99.90;;;;;;2095120;28;20067;-72
2024/01/24 01:21:19;;;;;;;1.98;1.30;;;6.60;99.90;;;;;;2098318;28;20028;-72
2024/01/24 01:22:20;;;;;;;2.03;1.38;;;6.50;99.90;;;;;;2101544;28;20024;-73
2024/01/24 01:23:20;;;;;;;3.08;1.20;;;6.50;99.90;;;;;;2101022;28;20498;-72
2024/01/24 01:24:21;;;;;;;3.75;1.30;;;6.50;99.90;;;;;;2094079;28;20037;-72
2024/01/24 01:25:21;;;;;;;2.03;1.10;;;6.50;99.90;;;;;;2094052;28;20398;-72
2024/01/24 01:26:22;;;;;;;1.63;1.20;;;6.50;99.90;;;;;;2095907;28;20085;-72
2024/01/24 01:27:22;;;;;;;2.45;1.10;;;6.50;99.90;;;;;;2101401;28;20025;-72
2024/01/24 01:28:23;;;;;;;1.88;0.90;;;6.50;99.90;;;;;;2105523;28;20062;-72
2024/01/24 01:29:24;;;;;;;2.42;1.20;;;6.50;99.90;;;;;;2105276;28;20022;-72
2024/01/24 01:30:24;;;;;;;3.10;1.30;;;6.50;99.90;;;;;;2095691;28;20028;-73
2024/01/24 01:31:25;;;;;;;2.35;1.10;;;6.50;99.90;;;;;;2104564;28;20019;-72
2024/01/24 01:32:25;;;;;;;1.40;1.00;;;6.50;99.90;;;;;;2093378;28;20040;-72
2024/01/24 01:33:26;;;;;;;2.38;1.20;;;6.50;99.90;;;;;;2093319;28;20036;-71
2024/01/24 01:34:26;;;;;;;2.67;1.10;;;6.50;99.90;;;;;;2084758;28;20044;-72
2024/01/24 01:35:27;;;;;;;3.88;1.38;;;6.50;99.90;;;;;;2101531;28;20479;-73
2024/01/24 01:36:27;;;;;;;2.50;1.20;;;6.50;99.90;;;;;;2095191;28;20060;-73
2024/01/24 01:37:28;;;;;;;4.15;1.50;;;6.50;99.90;;;;;;2091376;28;20028;-73
2024/01/24 01:38:28;;;;;;;2.90;1.60;;;6.50;99.90;;;;;;2102524;28;20020;-71
2024/01/24 01:39:29;;;;;;;3.33;1.50;;;6.50;99.90;;;;;;2093854;28;20030;-72
2024/01/24 01:40:30;;;;;;;3.47;1.35;;;6.50;99.90;;;;;;2095253;28;20035;-72
2024/01/24 01:41:30;;;;;;;4.38;1.70;;;6.40;99.90;;;;;;2099255;28;20024;-72
2024/01/24 01:42:31;;;;;;;3.75;1.60;;;6.40;99.90;;;;;;2102045;28;20056;-72
2024/01/24 01:43:31;;;;;;;5.07;2.03;;;6.40;99.90;;;;;;2099037;28;20501;-72
2024/01/24 01:44:38;;;;;;;3.38;1.50;;;6.40;99.90;;;;;;2102117;28;20028;-72
2024/01/24 01:45:39;;;;;;;3.08;1.55;;;6.40;99.90;;;;;;2098130;28;20098;-72
2024/01/24 01:46:40;;;;;;;4.97;2.35;;;6.50;99.90;;;;;;2098869;28;23042;-72
2024/01/24 01:47:41;;;;;;;4.40;2.17;;;6.50;99.90;;;;;;2095280;28;20062;-72
2024/01/24 01:48:42;;;;;;;4.20;1.92;;;6.50;99.90;;;;;;2093066;28;20055;-72
2024/01/24 01:49:43;;;;;;;3.70;1.70;;;6.50;99.90;;;;;;2099144;28;20048;-73
2024/01/24 01:50:44;;;;;;;3.78;1.70;;;6.50;99.90;;;;;;2097413;28;20160;-72
2024/01/24 01:51:45;;;;;;;4.18;2.35;;;6.50;99.90;;;;;;2094201;28;20025;-72
2024/01/24 01:52:46;;;;;;;3.28;1.65;;;6.50;99.90;;;;;;2093221;28;20933;-73
2024/01/24 01:53:48;;;;;;;4.65;1.63;;;6.50;99.90;;;;;;2103363;28;20111;-73
2024/01/24 01:54:49;;;;;;;3.55;1.60;;;6.40;99.90;;;;;;2094406;28;20036;-72
2024/01/24 01:55:50;;;;;;;2.78;1.75;;;6.50;99.90;;;;;;2101330;28;20028;-72
2024/01/24 01:56:51;;;;;;;4.47;1.90;;;6.50;99.90;;;;;;2101844;28;20037;-73
2024/01/24 01:57:52;;;;;;;3.65;1.70;;;6.50;99.90;;;;;;2093133;28;20713;-72
2024/01/24 01:58:53;;;;;;;1.92;1.50;;;6.50;99.90;;;;;;2097012;28;20040;-72
2024/01/24 01:59:53;;;;;;;5.15;1.70;;;6.50;99.90;;;;;;2102079;28;20027;-72
2024/01/24 02:00:54;;;;;;;5.13;2.80;;;6.50;99.90;;;;;;2094348;28;20029;-73
2024/01/24 02:01:56;;;;;;;2.92;1.80;;;6.40;99.90;;;;;;2105207;28;20040;-72
2024/01/24 02:02:57;;;;;;;5.95;2.60;;;6.50;99.90;;;;;;2105180;28;20437;-72
2024/01/24 02:03:59;;;;;;;6.35;2.92;;;6.50;99.90;;;;;;2098724;28;20119;-72
2024/01/24 02:04:59;;;;;;;4.68;1.63;;;6.50;99.90;;;;;;2101137;28;20025;-72
2024/01/24 02:06:01;;;;;;;6.30;2.78;;;6.50;99.90;;;;;;2106861;28;20454;-73
2024/01/24 02:07:02;;;;;;;4.32;1.40;;;6.50;99.90;;;;;;2100979;28;20024;-72
2024/01/24 02:08:03;;;;;;;3.10;1.40;;;6.50;99.90;;;;;;2101160;28;20028;-71
2024/01/24 02:09:08;;;;;;;3.55;1.27;;;6.60;99.90;;;;;;2092955;28;20028;-72
2024/01/24 02:10:10;;;;;;;4.45;1.70;;;6.50;99.90;;;;;;2093244;28;20021;-71
2024/01/24 02:11:11;;;;;;;3.08;1.20;;;6.50;99.90;;;;;;2100575;28;20120;-71
2024/01/24 02:12:12;;;;;;;2.58;1.60;;;6.50;99.90;;;;;;2093750;28;20024;-71
2024/01/24 02:13:13;;;;;;;2.63;1.50;;;6.50;99.90;;;;;;2093828;28;20028;-72
2024/01/24 02:14:13;;;;;;;1.65;1.15;;;6.50;99.90;;;;;;2101481;28;20104;-72
2024/01/24 02:15:14;;;;;;;2.45;1.38;;;6.60;99.90;;;;;;2097075;28;20040;-71
2024/01/24 02:16:15;;;;;;;3.75;1.30;;;6.60;99.90;;;;;;2103962;28;20169;-72
2024/01/24 02:17:15;;;;;;;2.70;1.40;;;6.60;99.90;;;;;;2103450;28;20116;-72
2024/01/24 02:18:16;;;;;;;3.15;1.65;;;6.70;99.90;;;;;;2097628;28;20031;-71
2024/01/24 02:19:16;;;;;;;2.83;1.60;;;6.70;99.90;;;;;;2098354;28;20040;-71
2024/01/24 02:20:18;;;;;;;2.60;1.40;;;6.70;99.90;;;;;;2096503;28;20513;-71
2024/01/24 02:21:19;;;;;;;2.33;1.50;;;6.70;99.90;;;;;;2097721;28;20119;-71
2024/01/24 02:22:19;;;;;;;3.30;1.55;;;6.70;99.90;;;;;;2102900;28;22998;-71
2024/01/24 02:23:23;;;;;;;2.15;1.48;;;6.70;99.90;;;;;;2105317;28;20048;-73
2024/01/24 02:24:24;;;;;;;2.50;1.23;;;6.70;99.90;;;;;;2102150;28;20306;-72
2024/01/24 02:25:24;;;;;;;2.42;1.20;;;6.80;99.90;;;;;;2101140;28;20016;-71
2024/01/24 02:26:25;;;;;;;2.92;1.30;;;6.90;99.90;;;;;;2092966;28;21115;-71
2024/01/24 02:27:25;;;;;;;1.58;1.20;;;6.90;99.90;;;;;;2092886;28;20035;-72
2024/01/24 02:28:26;;;;;;;2.85;1.20;;;6.90;99.90;;;;;;2099742;28;20060;-72
2024/01/24 02:29:27;;;;;;;2.80;1.25;;;6.90;99.90;;;;;;2104068;28;20063;-72
2024/01/24 02:30:27;;;;;;;2.90;1.30;;;6.90;99.90;;;;;;2099550;28;20051;-75
2024/01/24 02:31:28;;;;;;;2.00;1.17;;;6.90;99.90;;;;;;2092315;28;20032;-73
2024/01/24 02:32:29;;;;;;;1.75;1.20;;;6.90;99.90;;;;;;2093599;28;20044;-76
2024/01/24 02:33:29;;;;;;;1.95;1.25;;;6.90;99.90;;;;;;2093925;28;20410;-75
2024/01/24 02:34:30;;;;;;;1.88;1.48;;;6.90;99.90;;;;;;2098187;28;20054;-75
2024/01/24 02:35:30;;;;;;;3.40;1.50;;;6.90;99.90;;;;;;2105177;28;20385;-76
2024/01/24 02:36:31;;;;;;;2.03;1.30;;;6.80;99.90;;;;;;2095414;28;20769;-76
2024/01/24 02:37:31;;;;;;;3.63;1.80;;;6.90;99.90;;;;;;2102021;28;20029;-76
2024/01/24 02:38:32;;;;;;;2.97;1.60;;;6.80;99.90;;;;;;2104752;28;20032;-76
2024/01/24 02:39:33;;;;;;;3.25;1.55;;;6.90;99.90;;;;;;2094612;28;20176;-76
2024/01/24 02:40:33;;;;;;;3.08;1.60;;;6.90;99.90;;;;;;2101165;28;20020;-76
2024/01/24 02:41:34;;;;;;;2.10;1.38;;;6.90;99.90;;;;;;2092895;28;20029;-76
2024/01/24 02:42:34;;;;;;;2.70;1.20;;;6.90;99.90;;;;;;2101099;28;20033;-76
2024/01/24 02:43:35;;;;;;;2.88;1.48;;;6.90;99.90;;;;;;2102119;28;20083;-76
2024/01/24 02:44:36;;;;;;;2.03;1.40;;;7.00;99.90;;;;;;2103274;28;20073;-76
2024/01/24 02:45:36;;;;;;;1.67;1.17;;;7.00;99.90;;;;;;2102146;28;20068;-75
2024/01/24 02:46:37;;;;;;;4.10;1.67;;;7.00;99.90;;;;;;2101040;28;20026;-76
2024/01/24 02:47:37;;;;;;;11.65;3.50;;;7.00;99.90;;;;;;2097224;28;20044;-75
2024/01/24 02:48:38;;;;;;;4.57;1.77;;;7.10;99.90;;;;;;2093173;28;20048;-75
2024/01/24 02:49:40;;;;;;;4.80;1.52;;;7.10;99.90;;;;;;2088495;28;20516;-75
2024/01/24 02:50:41;;;;;;;2.70;1.45;;;7.10;99.90;;;;;;2097915;28;20547;-73
2024/01/24 02:51:41;;;;;;;3.30;1.70;;;7.10;99.90;;;;;;2092803;28;20021;-74
2024/01/24 02:52:42;;;;;;;5.97;1.95;;;7.10;99.90;;;;;;2097661;28;20039;-75
2024/01/24 02:53:42;;;;;;;9.40;2.50;;;7.10;99.90;;;;;;2093275;28;20123;-75
2024/01/24 02:54:43;;;;;;;3.95;1.90;;;7.10;99.90;;;;;;2094132;28;20016;-74
2024/01/24 02:55:44;;;;;;;5.55;2.45;;;7.10;99.90;;;;;;2100748;28;20036;-74
2024/01/24 02:56:45;;;;;;;2.83;1.65;;;7.20;99.90;;;;;;2099972;28;20507;-74
2024/01/24 02:57:45;;;;;;;4.93;1.67;;;7.30;99.90;;;;;;2104939;28;20036;-75
2024/01/24 02:58:46;;;;;;;5.93;3.03;;;7.20;99.90;;;;;;2094486;28;20025;-74
2024/01/24 02:59:47;;;;;;;4.47;2.33;;;7.20;99.90;;;;;;2099096;28;20038;-74
2024/01/24 03:00:47;;;;;;;6.28;2.15;;;7.20;99.90;;;;;;2102863;28;20023;-74
2024/01/24 03:01:48;;;;;;;3.50;1.83;;;7.20;99.90;;;;;;2109290;28;20024;-74
2024/01/24 03:02:48;;;;;;;4.75;2.25;;;7.20;99.90;;;;;;2094261;28;20032;-74
2024/01/24 03:03:49;;;;;;;5.03;2.35;;;7.20;99.90;;;;;;2105547;28;20028;-74
2024/01/24 03:04:49;;;;;;;6.20;2.40;;;7.20;99.90;;;;;;2097115;28;20025;-74
2024/01/24 03:05:50;;;;;;;6.18;2.63;;;7.30;99.90;;;;;;2094529;28;20043;-75
2024/01/24 03:06:51;;;;;;;7.65;3.17;;;7.30;99.90;;;;;;2100136;28;20086;-75
2024/01/24 03:07:51;;;;;;;4.63;1.80;;;7.30;99.90;;;;;;2100903;28;20089;-74
2024/01/24 03:08:58;;;;;;;9.27;2.60;;;7.20;99.90;;;;;;2084495;28;20036;-74
2024/01/24 03:10:02;;;;;;;7.72;2.20;;;7.20;99.90;;;;;;2096828;28;20506;-74
2024/01/24 03:11:02;;;;;;;6.63;2.20;;;7.20;99.90;;;;;;2098403;28;20043;-75
2024/01/24 03:12:03;;;;;;;8.70;2.25;;;7.30;99.90;;;;;;2099537;28;20414;-75
2024/01/24 03:13:04;;;;;;;3.28;1.55;;;7.30;99.90;;;;;;2099131;28;20024;-75
2024/01/24 03:14:04;;;;;;;4.07;1.73;;;7.30;99.90;;;;;;2094694;28;21017;-74
2024/01/24 03:15:05;;;;;;;3.05;1.45;;;7.40;99.90;;;;;;2097414;28;20124;-74
2024/01/24 03:16:07;;;;;;;1.80;1.30;;;7.30;99.90;;;;;;2098166;28;20028;-74
2024/01/24 03:17:08;;;;;;;3.28;1.48;;;7.30;99.90;;;;;;2094149;28;20086;-73
2024/01/24 03:18:08;;;;;;;3.03;1.50;;;7.30;99.90;;;;;;2098861;28;20493;-75
2024/01/24 03:19:09;;;;;;;10.25;2.58;;;7.30;99.90;;;;;;2101431;28;20514;-74
2024/01/24 03:20:14;;;;;;;10.43;2.50;;;7.40;99.90;;;;;;2105047;28;20115;-75
2024/01/24 03:21:16;;;;;;;9.70;4.38;;;7.40;99.90;;;;;;2096015;28;20024;-75
2024/01/24 03:22:17;;;;;;;6.50;3.17;;;7.40;99.90;;;;;;2096995;28;20028;-75
2024/01/24 03:23:17;;;;;;;12.43;2.78;;;7.40;99.90;;;;;;2100906;28;20485;-76
2024/01/24 03:24:18;;;;;;;5.72;2.03;;;7.50;99.90;;;;;;2095157;28;20036;-74
2024/01/24 03:25:19;;;;;;;6.78;2.28;;;7.40;99.90;;;;;;2101544;28;20465;-74
2024/01/24 03:26:19;;;;;;;5.95;2.10;;;7.40;99.90;;;;;;2101217;28;20069;-75
2024/01/24 03:27:20;;;;;;;7.13;2.10;;;7.50;99.90;;;;;;2096825;28;20092;-73
2024/01/24 03:28:21;;;;;;;5.80;1.77;;;7.50;99.90;;;;;;2092637;28;20688;-73
2024/01/24 03:29:24;;;;;;;15.30;5.65;;;7.50;99.90;;;;;;2092501;28;20033;-75
2024/01/24 03:30:33;;;;;;;10.57;4.05;;;7.50;99.90;;;;;;2086779;28;20116;-80
2024/01/24 03:31:34;;;;;;;8.15;3.75;;;7.50;99.90;;;;;;2090072;28;20107;-81
2024/01/24 03:32:34;;;;;;;6.55;2.60;;;7.50;99.90;;;;;;2100341;28;20445;-81
2024/01/24 03:33:38;;;;;;;3.10;1.98;;;7.60;99.90;;;;;;2097492;28;20028;-80
2024/01/24 03:34:38;;;;;;;3.92;1.77;;;7.60;99.90;;;;;;2096833;28;20055;-80
2024/01/24 03:35:39;;;;;;;8.48;3.47;;;7.70;99.90;;;;;;2101517;28;20423;-81
2024/01/24 03:36:39;;;;;;;4.68;1.80;;;7.80;99.90;;;;;;2098671;28;20483;-80
2024/01/24 03:37:40;;;;;;;4.90;1.70;;;7.90;99.90;;;;;;2091704;28;20550;-81
2024/01/24 03:38:40;;;;;;;3.50;1.65;;;8.00;99.90;;;;;;2097287;28;20009;-82
2024/01/24 03:39:41;;;;;;;3.97;1.70;;;8.10;99.90;;;;;;2097389;28;20099;-81
2024/01/24 03:40:42;;;;;;;3.85;1.30;;;8.10;99.90;;;;;;2092853;28;20414;-72
2024/01/24 03:41:43;;;;;;;5.28;1.70;;;8.20;99.90;;;;;;2096424;28;20160;-73
2024/01/24 03:42:43;;;;;;;2.45;1.50;;;8.30;99.90;;;;;;2092259;28;20551;-72
2024/01/24 03:43:44;;;;;;;3.03;1.67;;;8.40;99.90;;;;;;2101420;28;20036;-73
2024/01/24 03:44:44;;;;;;;3.40;1.80;;;8.40;99.90;;;;;;2098219;28;20634;-73
2024/01/24 03:45:45;;;;;;;2.83;1.40;;;8.40;99.90;;;;;;2095735;28;20105;-71
2024/01/24 03:46:45;;;;;;;5.85;1.77;;;8.40;99.90;;;;;;2092891;28;20031;-72
2024/01/24 03:47:49;;;;;;;2.58;1.65;;;8.40;99.90;;;;;;2093002;28;20032;-73
2024/01/24 03:48:50;;;;;;;3.92;1.70;;;8.40;99.90;;;;;;2092179;28;20036;-73
2024/01/24 03:49:51;;;;;;;4.55;1.63;;;8.30;99.90;;;;;;2092200;28;20029;-72
2024/01/24 03:50:51;;;;;;;4.32;1.60;;;8.30;99.90;;;;;;2099880;28;20533;-72
2024/01/24 03:51:52;;;;;;;6.20;2.47;;;8.30;99.90;;;;;;2093847;28;20028;-72
2024/01/24 03:52:53;;;;;;;5.45;2.15;;;8.30;99.90;;;;;;2101113;28;20087;-73
2024/01/24 03:53:54;;;;;;;5.28;1.88;;;8.30;99.90;;;;;;2100393;28;20062;-73
2024/01/24 03:54:54;;;;;;;4.57;2.15;;;8.40;99.90;;;;;;2096968;28;20422;-72
2024/01/24 03:55:55;;;;;;;3.63;1.63;;;8.50;99.90;;;;;;2098755;28;20419;-72
2024/01/24 03:56:56;;;;;;;3.38;1.50;;;8.50;99.90;;;;;;2103757;28;20031;-72
2024/01/24 03:57:57;;;;;;;2.85;1.40;;;8.50;99.90;;;;;;2100968;28;20017;-72
2024/01/24 03:58:57;;;;;;;3.80;1.60;;;8.70;99.90;;;;;;2093346;28;20077;-72
2024/01/24 03:59:58;;;;;;;4.53;1.50;;;8.80;99.90;;;;;;2097863;28;20032;-72
2024/01/24 04:00:58;;;;;;;2.42;1.30;;;8.90;99.90;;;;;;2101535;28;20090;-73
2024/01/24 04:01:59;;;;;;;2.28;1.38;;;8.90;99.90;;;;;;2101166;28;20127;-72
2024/01/24 04:02:59;;;;;;;4.25;1.60;;;8.90;99.90;;;;;;2093361;28;20394;-72
2024/01/24 04:04:00;;;;;;;4.32;1.92;;;8.90;99.90;;;;;;2092626;28;20078;-73
2024/01/24 04:05:00;;;;;;;3.55;1.50;;;8.90;99.90;;;;;;2092144;28;20033;-72
2024/01/24 04:06:01;;;;;;;3.13;1.50;;;9.00;99.90;;;;;;2091908;28;20083;-71
2024/01/24 04:07:02;;;;;;;2.75;1.30;;;9.10;99.90;;;;;;2092250;28;20021;-72
2024/01/24 04:08:03;;;;;;;3.72;1.50;;;9.20;99.90;;;;;;2100530;28;20043;-72
2024/01/24 04:09:03;;;;;;;1.77;1.30;;;9.20;99.90;;;;;;2093153;28;20039;-72
2024/01/24 04:10:04;;;;;;;4.43;1.38;;;9.20;99.90;;;;;;2100999;28;20024;-71
2024/01/24 04:11:05;;;;;;;2.08;1.40;;;9.20;99.90;;;;;;2101145;28;20046;-72
2024/01/24 04:12:06;;;;;;;3.72;1.48;;;9.30;99.90;;;;;;2097133;28;20093;-72
2024/01/24 04:13:06;;;;;;;2.95;1.50;;;9.30;99.90;;;;;;2100323;28;20040;-72
2024/01/24 04:14:07;;;;;;;2.55;1.30;;;9.40;99.90;;;;;;2103750;28;20016;-72
2024/01/24 04:15:09;;;;;;;4.10;1.50;;;9.50;99.90;;;;;;2101927;28;20073;-72
2024/01/24 04:16:09;;;;;;;2.13;1.20;;;9.50;99.90;;;;;;2101517;28;20023;-72
2024/01/24 04:17:10;;;;;;;3.08;1.30;;;9.50;99.90;;;;;;2093321;28;20039;-72
2024/01/24 04:18:10;;;;;;;2.33;1.30;;;9.50;99.90;;;;;;2099378;28;20051;-71
2024/01/24 04:19:11;;;;;;;4.18;1.60;;;9.60;99.90;;;;;;2100942;28;20528;-72
2024/01/24 04:20:11;;;;;;;3.28;1.30;;;9.50;99.90;;;;;;2097385;28;20493;-72
2024/01/24 04:21:12;;;;;;;1.70;1.23;;;9.60;99.90;;;;;;2099253;28;20021;-72
2024/01/24 04:22:13;;;;;;;5.13;1.50;;;9.60;99.90;;;;;;2100900;28;20051;-72
2024/01/24 04:23:13;;;;;;;3.45;1.60;;;9.70;99.90;;;;;;2094798;28;20050;-72
2024/01/24 04:24:14;;;;;;;4.55;1.40;;;9.70;99.90;;;;;;2100187;28;20025;-72
2024/01/24 04:25:14;;;;;;;2.83;1.20;;;9.80;99.90;;;;;;2101106;28;20032;-70
2024/01/24 04:26:16;;;;;;;4.78;1.20;;;10.00;99.90;;;;;;2098992;28;20099;-72
2024/01/24 04:27:16;;;;;;;1.98;1.20;;;10.00;99.90;;;;;;2099148;28;20082;-71
2024/01/24 04:28:17;;;;;;;2.22;1.30;;;10.00;99.90;;;;;;2102669;28;20074;-71
2024/01/24 04:29:18;;;;;;;3.72;1.40;;;10.00;99.90;;;;;;2083694;28;20025;-71
2024/01/24 04:30:18;;;;;;;1.83;1.10;;;9.90;99.90;;;;;;2092183;28;20112;-71
2024/01/24 04:31:19;;;;;;;4.45;1.40;;;9.90;99.90;;;;;;2094632;28;20024;-72
2024/01/24 04:32:19;;;;;;;3.58;1.50;;;9.80;99.90;;;;;;2089846;28;20021;-71
2024/01/24 04:33:20;;;;;;;2.33;1.33;;;9.80;99.90;;;;;;2094625;28;20028;-71
2024/01/24 04:34:20;;;;;;;3.67;1.30;;;9.70;99.90;;;;;;2091934;28;20051;-72
2024/01/24 04:35:21;;;;;;;3.03;1.30;;;9.80;99.90;;;;;;2083644;28;20075;-71
2024/01/24 04:36:21;;;;;;;2.78;1.30;;;9.80;99.90;;;;;;2095030;28;20028;-72
2024/01/24 04:37:22;;;;;;;2.55;1.20;;;9.80;99.90;;;;;;2097757;28;20028;-72
2024/01/24 04:38:24;;;;;;;3.85;1.40;;;9.80;99.90;;;;;;2102659;28;20024;-73
2024/01/24 04:39:24;;;;;;;3.00;1.20;;;9.80;99.90;;;;;;2098423;28;20017;-72
2024/01/24 04:40:25;;;;;;;1.80;1.38;;;9.90;99.90;;;;;;2097165;28;20016;-72
2024/01/24 04:41:25;;;;;;;3.05;1.40;;;10.00;99.90;;;;;;2100954;28;20500;-72
2024/01/24 04:42:26;;;;;;;2.83;1.20;;;9.90;99.90;;;;;;2096990;28;20483;-72
2024/01/24 04:43:26;;;;;;;2.83;1.40;;;9.90;99.90;;;;;;2096661;28;20048;-70
2024/01/24 04:44:27;;;;;;;2.13;1.10;;;9.90;99.90;;;;;;2092617;28;20020;-71
2024/01/24 04:45:27;;;;;;;1.50;1.23;;;9.90;99.90;;;;;;2097041;28;20035;-71
2024/01/24 04:46:28;;;;;;;2.00;1.23;;;9.80;99.90;;;;;;2095443;28;20033;-70
2024/01/24 04:47:28;;;;;;;2.60;1.27;;;9.80;99.90;;;;;;2097116;28;20024;-71
2024/01/24 04:48:29;;;;;;;2.75;1.30;;;9.90;99.90;;;;;;2101746;28;21032;-70
2024/01/24 04:49:29;;;;;;;2.20;1.30;;;9.90;99.90;;;;;;2101748;28;20078;-70
2024/01/24 04:50:30;;;;;;;3.22;1.30;;;10.00;99.90;;;;;;2105621;28;20124;-72
2024/01/24 04:51:30;;;;;;;2.78;1.48;;;9.90;99.90;;;;;;2105716;28;20035;-72
2024/01/24 04:52:31;;;;;;;2.33;1.40;;;10.00;99.90;;;;;;2105483;28;20020;-71
2024/01/24 04:53:31;;;;;;;3.53;1.38;;;9.90;99.90;;;;;;2105820;28;20490;-71
2024/01/24 04:54:36;;;;;;;2.22;1.30;;;9.80;99.90;;;;;;2095439;28;20031;-72
2024/01/24 04:55:36;;;;;;;2.85;1.40;;;9.80;99.90;;;;;;2101355;28;20043;-70
2024/01/24 04:56:43;;;;;;;3.05;1.50;;;9.90;99.90;;;;;;2100259;28;20020;-72
2024/01/24 04:57:44;;;;;;;2.35;1.50;;;9.90;99.90;;;;;;2104809;28;20553;-71
2024/01/24 04:58:45;;;;;;;3.45;1.48;;;9.90;99.90;;;;;;2102377;28;20031;-71
2024/01/24 04:59:45;;;;;;;1.60;1.13;;;9.90;99.90;;;;;;2104112;28;20035;-72
2024/01/24 05:00:47;;;;;;;3.05;1.35;;;9.80;99.90;;;;;;2101125;28;20049;-72
2024/01/24 05:01:48;;;;;;;3.60;2.67;;;9.80;99.90;;;;;;2101306;28;20482;-70
2024/01/24 05:02:48;;;;;;;2.85;1.80;;;9.70;99.90;;;;;;2106265;28;20035;-80
2024/01/24 05:03:49;;;;;;;2.30;1.70;;;9.70;99.90;;;;;;2101572;28;20273;-75
2024/01/24 05:04:49;;;;;;;3.50;1.23;;;9.70;99.90;;;;;;2102586;28;20042;-78
2024/01/24 05:05:50;;;;;;;3.33;1.35;;;9.70;99.90;;;;;;2098750;28;20036;-80
2024/01/24 05:06:50;;;;;;;2.80;1.40;;;9.70;99.90;;;;;;2103252;28;20035;-79
2024/01/24 05:07:51;;;;;;;2.97;1.50;;;9.80;99.90;;;;;;2101125;28;20075;-80
2024/01/24 05:08:51;;;;;;;4.70;1.50;;;9.90;99.90;;;;;;2104885;28;20027;-81
2024/01/24 05:09:52;;;;;;;3.40;1.40;;;10.00;99.90;;;;;;2096675;28;20047;-79
2024/01/24 05:10:52;;;;;;;3.17;1.30;;;9.90;99.90;;;;;;2107041;28;20032;-79
2024/01/24 05:11:53;;;;;;;2.20;1.63;;;10.00;99.90;;;;;;2104027;27;20093;-80
2024/01/24 05:12:53;;;;;;;2.85;1.40;;;9.90;99.90;;;;;;2103706;28;20042;-79
2024/01/24 05:13:59;;;;;;;3.30;1.40;;;9.90;99.90;;;;;;2096462;28;20024;-80
2024/01/24 05:15:00;;;;;;;3.67;1.45;;;9.90;99.90;;;;;;2103357;28;20036;-80
2024/01/24 05:16:00;;;;;;;2.78;1.50;;;9.90;99.90;;;;;;2107010;28;20424;-80
2024/01/24 05:17:01;;;;;;;3.97;1.40;;;9.90;99.90;;;;;;2101800;28;20451;-80
2024/01/24 05:18:02;;;;;;;2.70;1.40;;;9.90;99.90;;;;;;2101831;28;20133;-80
2024/01/24 05:19:02;;;;;;;2.22;1.30;;;9.90;99.90;;;;;;2097976;28;20044;-79
2024/01/24 05:20:05;;;;;;;3.15;1.50;;;9.90;99.90;;;;;;2101940;27;20033;-79